createdAt,value
2022-11-11T00:00:04.579Z,31.20
2022-11-11T00:03:11.732Z,30.30
2022-11-11T00:06:09.692Z,29.60
2022-11-11T00:08:56.908Z,29.60
2022-11-11T00:11:44.022Z,31.70
2022-11-11T00:14:31.247Z,31.30
2022-11-11T00:17:37.054Z,30.40
2022-11-11T00:20:44.750Z,31.20
2022-11-11T00:23:50.265Z,29.60
2022-11-11T00:26:40.356Z,30.20
2022-11-11T00:29:28.030Z,32.30
2022-11-11T00:32:25.004Z,32.10
2022-11-11T00:35:30.934Z,28.10
2022-11-11T00:38:36.355Z,31.40
2022-11-11T00:41:27.366Z,27.20
2022-11-11T00:44:14.227Z,33.10
2022-11-11T00:47:19.694Z,30.10
2022-11-11T00:50:31.218Z,27.60
2022-11-11T00:53:27.665Z,26.40
2022-11-11T00:56:14.831Z,25.80
2022-11-11T00:59:05.445Z,26.60
2022-11-11T01:01:52.476Z,26.60
2022-11-11T01:04:39.952Z,28.30
2022-11-11T01:07:27.140Z,25.10
2022-11-11T01:10:14.366Z,27.60
2022-11-11T01:13:12.816Z,30.20
2022-11-11T01:16:04.534Z,29.40
2022-11-11T01:18:53.310Z,27.80
2022-11-11T01:21:40.173Z,28.40
2022-11-11T01:24:27.613Z,29.20
2022-11-11T01:27:14.526Z,27.80
2022-11-11T01:30:01.513Z,27.40
2022-11-11T01:32:48.957Z,27.60
2022-11-11T01:35:40.281Z,28.50
2022-11-11T01:38:27.892Z,27.80
2022-11-11T01:41:33.639Z,24.60
2022-11-11T01:44:47.354Z,27.40
2022-11-11T01:48:22.201Z,26.30
2022-11-11T01:51:11.037Z,26.70
2022-11-11T01:54:03.100Z,26.70
2022-11-11T01:56:55.871Z,26.50
2022-11-11T01:59:46.454Z,27.70
2022-11-11T02:02:44.849Z,28.60
2022-11-11T02:05:48.240Z,26.80
2022-11-11T02:08:37.757Z,27.20
2022-11-11T02:11:46.618Z,29.70
2022-11-11T02:14:40.652Z,26.50
2022-11-11T02:17:31.480Z,23.90
2022-11-11T02:20:24.067Z,25.10
2022-11-11T02:23:19.366Z,25.90
2022-11-11T02:26:09.208Z,25.70
2022-11-11T02:28:57.357Z,26.10
2022-11-11T02:31:44.761Z,26.60
2022-11-11T02:34:33.756Z,27.60
2022-11-11T02:37:27.410Z,27.30
2022-11-11T02:40:59.646Z,28.30
2022-11-11T02:43:46.619Z,27.10
2022-11-11T02:46:33.533Z,28.50
2022-11-11T02:49:20.728Z,27.30
2022-11-11T02:52:08.210Z,28.70
2022-11-11T02:54:55.432Z,26.60
2022-11-11T02:57:42.692Z,26.90
2022-11-11T03:00:29.832Z,27.60
2022-11-11T03:03:17.106Z,27.80
2022-11-11T03:06:04.449Z,27.60
2022-11-11T03:08:51.615Z,27.00
2022-11-11T03:11:39.482Z,25.80
2022-11-11T03:14:26.945Z,27.00
2022-11-11T03:17:32.979Z,26.60
2022-11-11T03:20:38.934Z,25.50
2022-11-11T03:23:25.966Z,23.50
2022-11-11T03:26:13.018Z,25.20
2022-11-11T03:28:59.778Z,25.70
2022-11-11T03:31:46.594Z,27.30
2022-11-11T03:34:33.423Z,27.30
2022-11-11T03:37:38.463Z,26.60
2022-11-11T03:40:25.777Z,26.30
2022-11-11T03:43:15.765Z,25.30
2022-11-11T03:46:05.551Z,26.20
2022-11-11T03:48:52.474Z,24.70
2022-11-11T03:51:39.386Z,24.60
2022-11-11T03:54:26.365Z,24.00
2022-11-11T03:57:31.366Z,23.70
2022-11-11T04:00:23.047Z,24.90
2022-11-11T04:03:35.591Z,23.30
2022-11-11T04:06:41.194Z,22.10
2022-11-11T04:09:46.542Z,23.80
2022-11-11T04:12:56.354Z,23.00
2022-11-11T04:16:01.260Z,21.40
2022-11-11T04:19:06.539Z,22.20
2022-11-11T04:21:53.835Z,21.00
2022-11-11T04:24:59.313Z,21.00
2022-11-11T04:28:06.450Z,22.00
2022-11-11T04:30:53.494Z,23.30
2022-11-11T04:33:40.795Z,22.70
2022-11-11T04:36:27.994Z,22.90
2022-11-11T04:39:32.880Z,22.40
2022-11-11T04:42:19.708Z,23.40
2022-11-11T04:45:28.343Z,23.40
2022-11-11T04:48:18.338Z,22.30
2022-11-11T04:51:05.767Z,22.20
2022-11-11T04:53:52.715Z,22.70
2022-11-11T04:56:50.221Z,23.30
2022-11-11T04:59:37.516Z,22.20
2022-11-11T05:02:42.917Z,20.40
2022-11-11T05:05:50.917Z,20.20
2022-11-11T05:08:57.392Z,20.00
2022-11-11T05:11:44.562Z,20.50
2022-11-11T05:14:57.507Z,20.10
2022-11-11T05:18:16.665Z,20.50
2022-11-11T05:21:22.450Z,20.50
2022-11-11T05:24:27.659Z,20.80
2022-11-11T05:27:16.249Z,18.80
2022-11-11T05:30:08.255Z,20.00
2022-11-11T05:32:56.307Z,19.90
2022-11-11T05:35:45.796Z,19.90
2022-11-11T05:38:33.014Z,20.00
2022-11-11T05:41:22.916Z,20.40
2022-11-11T05:44:10.789Z,19.20
2022-11-11T05:46:58.688Z,18.90
2022-11-11T05:49:45.539Z,19.20
2022-11-11T05:52:32.792Z,18.30
2022-11-11T05:55:20.664Z,17.10
2022-11-11T05:58:08.376Z,19.50
2022-11-11T06:00:55.568Z,17.70
2022-11-11T06:03:44.093Z,18.20
2022-11-11T06:06:36.956Z,18.30
2022-11-11T06:09:24.901Z,17.50
2022-11-11T06:12:12.765Z,17.60
2022-11-11T06:15:00.125Z,19.30
2022-11-11T06:17:47.636Z,19.10
2022-11-11T06:20:37.806Z,19.00
2022-11-11T06:23:26.709Z,18.50
2022-11-11T06:26:15.290Z,19.00
2022-11-11T06:29:04.367Z,18.40
2022-11-11T06:31:51.829Z,17.90
2022-11-11T06:34:38.677Z,18.80
2022-11-11T06:37:26.730Z,18.10
2022-11-11T06:40:17.489Z,18.90
2022-11-11T06:43:07.384Z,18.60
2022-11-11T06:45:55.677Z,19.70
2022-11-11T06:48:43.756Z,19.00
2022-11-11T06:51:30.759Z,17.10
2022-11-11T06:54:17.676Z,18.00
2022-11-11T06:57:08.561Z,18.70
2022-11-11T06:59:55.722Z,17.10
2022-11-11T07:02:43.871Z,17.90
2022-11-11T07:05:32.467Z,18.50
2022-11-11T07:08:20.499Z,18.50
2022-11-11T07:11:13.992Z,19.20
2022-11-11T07:14:06.639Z,17.30
2022-11-11T07:16:53.950Z,17.10
2022-11-11T07:19:42.893Z,18.50
2022-11-11T07:22:35.492Z,20.70
2022-11-11T07:25:27.179Z,19.40
2022-11-11T07:28:14.841Z,21.50
2022-11-11T07:31:02.572Z,19.60
2022-11-11T07:33:51.063Z,20.40
2022-11-11T07:36:39.259Z,19.90
2022-11-11T07:39:28.630Z,26.20
2022-11-11T07:42:31.027Z,19.30
2022-11-11T07:45:19.456Z,17.70
2022-11-11T07:48:07.133Z,18.10
2022-11-11T07:50:57.238Z,18.70
2022-11-11T07:53:46.375Z,19.40
2022-11-11T07:56:33.678Z,20.10
2022-11-11T07:59:20.863Z,20.10
2022-11-11T08:02:13.102Z,20.00
2022-11-11T08:05:00.245Z,18.50
2022-11-11T08:07:48.774Z,18.80
2022-11-11T08:10:38.431Z,16.00
2022-11-11T08:13:44.445Z,20.10
2022-11-11T08:16:31.636Z,19.20
2022-11-11T08:19:18.624Z,19.40
2022-11-11T08:22:06.398Z,18.40
2022-11-11T08:25:09.527Z,17.40
2022-11-11T08:28:05.369Z,20.40
2022-11-11T08:30:52.704Z,19.10
2022-11-11T08:33:39.531Z,17.30
2022-11-11T08:36:27.036Z,19.70
2022-11-11T08:39:15.445Z,19.40
2022-11-11T08:42:02.712Z,20.50
2022-11-11T08:44:51.934Z,20.00
2022-11-11T08:47:40.569Z,20.30
2022-11-11T08:50:27.945Z,20.50
2022-11-11T08:53:15.506Z,19.30
2022-11-11T08:56:04.512Z,22.00
2022-11-11T08:58:53.737Z,16.60
2022-11-11T09:01:42.395Z,20.70
2022-11-11T09:04:44.138Z,21.30
2022-11-11T09:07:32.464Z,21.00
2022-11-11T09:10:19.511Z,21.80
2022-11-11T09:13:06.999Z,20.70
2022-11-11T09:15:55.696Z,20.60
2022-11-11T09:18:43.141Z,21.80
2022-11-11T09:21:30.430Z,21.30
2022-11-11T09:24:17.190Z,20.30
2022-11-11T09:27:04.269Z,20.70
2022-11-11T09:29:51.477Z,20.50
2022-11-11T09:32:38.438Z,20.00
2022-11-11T09:35:25.552Z,21.10
2022-11-11T09:38:13.476Z,20.90
2022-11-11T09:41:25.800Z,21.50
2022-11-11T09:44:57.387Z,21.40
2022-11-11T09:47:51.032Z,20.50
2022-11-11T09:50:40.476Z,20.10
2022-11-11T09:53:39.064Z,20.80
2022-11-11T09:56:31.528Z,20.60
2022-11-11T09:59:33.050Z,21.20
2022-11-11T10:02:45.601Z,21.30
2022-11-11T10:05:40.628Z,21.70
2022-11-11T10:08:45.247Z,22.90
2022-11-11T10:11:40.835Z,19.30
2022-11-11T10:14:49.561Z,22.50
2022-11-11T10:18:01.713Z,21.70
2022-11-11T10:20:55.621Z,21.70
2022-11-11T10:23:48.903Z,20.20
2022-11-11T10:26:41.261Z,21.50
2022-11-11T10:29:51.149Z,20.40
2022-11-11T10:32:38.415Z,21.00
2022-11-11T10:35:32.316Z,21.10
2022-11-11T10:38:51.251Z,18.70
2022-11-11T10:41:49.368Z,21.80
2022-11-11T10:44:37.555Z,19.30
2022-11-11T10:47:44.472Z,20.00
2022-11-11T10:50:39.265Z,20.60
2022-11-11T10:53:32.822Z,21.30
2022-11-11T10:56:58.514Z,21.40
2022-11-11T10:59:56.331Z,21.80
2022-11-11T11:03:05.104Z,19.90
2022-11-11T11:05:57.537Z,20.70
2022-11-11T11:08:53.134Z,22.90
2022-11-11T11:12:00.185Z,20.20
2022-11-11T11:14:54.647Z,17.60
2022-11-11T11:18:12.941Z,19.40
2022-11-11T11:21:04.193Z,20.90
2022-11-11T11:23:51.245Z,19.30
2022-11-11T11:26:51.992Z,18.30
2022-11-11T11:29:44.876Z,18.10
2022-11-11T11:32:32.911Z,18.30
2022-11-11T11:35:54.219Z,18.30
2022-11-11T11:38:47.623Z,20.10
2022-11-11T11:41:50.465Z,19.40
2022-11-11T11:44:39.894Z,16.40
2022-11-11T11:48:03.293Z,16.90
2022-11-11T11:51:10.178Z,16.20
2022-11-11T11:55:01.807Z,17.00
2022-11-11T11:57:57.612Z,18.40
2022-11-11T12:01:16.910Z,18.80
2022-11-11T12:04:19.596Z,17.70
2022-11-11T12:07:27.230Z,17.50
2022-11-11T12:10:43.316Z,18.00
2022-11-11T12:14:03.081Z,17.00
2022-11-11T12:17:42.482Z,17.30
2022-11-11T12:20:40.950Z,18.60
2022-11-11T12:24:10.226Z,17.80
2022-11-11T12:27:59.329Z,16.70
2022-11-11T12:30:56.912Z,18.30
2022-11-11T12:34:05.465Z,18.00
2022-11-11T12:37:22.935Z,16.70
2022-11-11T12:40:39.901Z,17.60
2022-11-11T12:43:56.162Z,17.30
2022-11-11T12:46:55.709Z,16.90
2022-11-11T12:49:55.281Z,18.30
2022-11-11T12:53:11.209Z,17.30
2022-11-11T12:56:38.461Z,17.50
2022-11-11T13:00:11.097Z,17.90
2022-11-11T13:03:26.233Z,18.20
2022-11-11T13:06:33.563Z,17.50
2022-11-11T13:09:53.420Z,17.60
2022-11-11T13:13:03.516Z,17.20
2022-11-11T13:15:50.895Z,18.40
2022-11-11T13:19:23.538Z,18.60
2022-11-11T13:25:23.513Z,18.50
2022-11-11T13:28:24.183Z,18.20
2022-11-11T13:31:39.347Z,18.70
2022-11-11T13:34:37.521Z,19.20
2022-11-11T13:37:30.387Z,18.20
2022-11-11T13:40:40.643Z,17.50
2022-11-11T13:43:52.801Z,17.10
2022-11-11T13:46:50.297Z,16.90
2022-11-11T13:50:02.412Z,16.00
2022-11-11T13:53:07.307Z,16.50
2022-11-11T13:56:03.373Z,16.30
2022-11-11T13:58:58.513Z,15.60
2022-11-11T14:01:46.971Z,15.80
2022-11-11T14:05:09.239Z,15.90
2022-11-11T14:07:58.313Z,16.30
2022-11-11T14:11:12.074Z,15.70
2022-11-11T14:14:50.548Z,16.30
2022-11-11T14:17:45.880Z,15.90
2022-11-11T14:20:33.173Z,16.30
2022-11-11T14:23:30.960Z,16.40
2022-11-11T14:26:28.341Z,16.50
2022-11-11T14:29:21.563Z,16.90
2022-11-11T14:32:14.371Z,15.00
2022-11-11T14:36:05.823Z,16.30
2022-11-11T14:39:10.897Z,15.50
2022-11-11T14:41:58.285Z,17.90
2022-11-11T14:44:45.893Z,17.40
2022-11-11T14:47:40.867Z,16.80
2022-11-11T14:50:31.311Z,17.30
2022-11-11T14:53:35.146Z,20.70
2022-11-11T14:56:24.685Z,17.80
2022-11-11T14:59:14.580Z,17.20
2022-11-11T15:02:04.263Z,17.20
2022-11-11T15:04:51.084Z,19.80
2022-11-11T15:07:53.584Z,17.50
2022-11-11T15:10:59.500Z,25.80
2022-11-11T15:14:21.490Z,20.00
2022-11-11T15:17:34.869Z,17.00
2022-11-11T15:20:50.789Z,18.10
2022-11-11T15:23:56.430Z,18.50
2022-11-11T15:27:07.639Z,17.50
2022-11-11T15:30:53.194Z,17.70
2022-11-11T15:37:07.193Z,19.10
2022-11-11T15:39:57.884Z,18.20
2022-11-11T15:42:48.245Z,18.00
2022-11-11T15:45:36.821Z,18.80
2022-11-11T15:48:29.795Z,19.50
2022-11-11T15:51:31.672Z,20.10
2022-11-11T15:54:23.345Z,18.60
2022-11-11T15:57:35.534Z,19.10
2022-11-11T16:00:24.084Z,21.30
2022-11-11T16:03:28.662Z,19.90
2022-11-11T16:06:17.255Z,22.10
2022-11-11T16:09:05.036Z,20.70
2022-11-11T16:11:57.617Z,20.70
2022-11-11T16:14:48.015Z,20.60
2022-11-11T16:17:43.508Z,20.00
2022-11-11T16:20:47.150Z,19.80
2022-11-11T16:23:35.515Z,21.10
2022-11-11T16:26:23.317Z,21.20
2022-11-11T16:29:16.567Z,20.80
2022-11-11T16:32:24.241Z,22.00
2022-11-11T16:35:39.113Z,21.70
2022-11-11T16:38:36.079Z,22.10
2022-11-11T16:41:34.301Z,22.60
2022-11-11T16:44:51.740Z,22.00
2022-11-11T16:47:46.194Z,23.10
2022-11-11T16:50:34.123Z,22.60
2022-11-11T16:53:35.261Z,20.30
2022-11-11T16:56:32.602Z,24.10
2022-11-11T16:59:49.892Z,23.70
2022-11-11T17:02:37.220Z,23.50
2022-11-11T17:05:55.539Z,23.40
2022-11-11T17:08:45.722Z,24.10
2022-11-11T17:11:45.904Z,23.50
2022-11-11T17:14:39.209Z,23.80
2022-11-11T17:17:26.840Z,24.00
2022-11-11T17:20:22.444Z,20.90
2022-11-11T17:23:14.594Z,23.20
2022-11-11T17:26:06.030Z,22.30
2022-11-11T17:28:58.665Z,29.30
2022-11-11T17:31:52.063Z,25.80
2022-11-11T17:34:50.272Z,25.60
2022-11-11T17:37:43.260Z,27.50
2022-11-11T17:40:35.350Z,33.70
2022-11-11T17:43:23.765Z,25.90
2022-11-11T17:46:11.448Z,26.50
2022-11-11T17:48:59.054Z,29.30
2022-11-11T17:51:47.446Z,29.00
2022-11-11T17:54:35.505Z,28.60
2022-11-11T17:57:23.636Z,28.00
2022-11-11T18:00:13.710Z,27.80
2022-11-11T18:03:02.396Z,23.30
2022-11-11T18:05:55.171Z,27.40
2022-11-11T18:11:31.658Z,26.20
2022-11-11T18:14:20.119Z,28.00
2022-11-11T18:17:09.141Z,27.00
2022-11-11T18:19:58.710Z,28.00
2022-11-11T18:22:46.828Z,24.30
2022-11-11T18:25:34.187Z,26.50
2022-11-11T18:28:22.278Z,25.90
2022-11-11T18:31:14.280Z,21.80
2022-11-11T18:34:02.252Z,22.90
2022-11-11T18:36:55.271Z,24.30
2022-11-11T18:39:43.511Z,24.40
2022-11-11T18:42:32.487Z,25.70
2022-11-11T18:45:20.510Z,24.20
2022-11-11T18:48:08.875Z,24.80
2022-11-11T18:50:56.221Z,24.00
2022-11-11T18:53:44.117Z,24.90
2022-11-11T18:56:34.979Z,24.20
2022-11-11T18:59:22.351Z,25.40
2022-11-11T19:02:10.058Z,27.50
2022-11-11T19:04:57.544Z,24.00
2022-11-11T19:07:49.014Z,24.80
2022-11-11T19:10:36.157Z,24.30
2022-11-11T19:13:24.716Z,23.30
2022-11-11T19:16:17.008Z,22.60
2022-11-11T19:19:06.430Z,22.80
2022-11-11T19:21:53.859Z,20.60
2022-11-11T19:24:41.227Z,20.00
2022-11-11T19:27:28.481Z,19.70
2022-11-11T19:30:16.099Z,21.10
2022-11-11T19:33:04.276Z,20.70
2022-11-11T19:36:14.121Z,21.20
2022-11-11T19:39:02.019Z,19.80
2022-11-11T19:41:49.386Z,20.80
2022-11-11T19:44:36.700Z,21.50
2022-11-11T19:47:23.975Z,22.90
2022-11-11T19:50:11.311Z,21.40
2022-11-11T19:53:04.091Z,21.20
2022-11-11T19:56:02.803Z,20.80
2022-11-11T19:58:50.317Z,21.80
2022-11-11T20:01:37.486Z,23.00
2022-11-11T20:04:25.270Z,23.90
2022-11-11T20:07:12.803Z,23.90
2022-11-11T20:10:00.133Z,24.10
2022-11-11T20:12:47.371Z,25.80
2022-11-11T20:15:35.918Z,25.40
2022-11-11T20:18:23.354Z,24.30
2022-11-11T20:21:12.096Z,22.30
2022-11-11T20:23:59.553Z,23.40
2022-11-11T20:26:51.911Z,23.80
2022-11-11T20:29:40.080Z,23.10
2022-11-11T20:32:28.442Z,23.30
2022-11-11T20:35:17.048Z,23.20
2022-11-11T20:38:04.240Z,22.40
2022-11-11T20:41:08.872Z,25.30
2022-11-11T20:43:55.927Z,25.90
2022-11-11T20:46:43.167Z,24.60
2022-11-11T20:49:30.319Z,24.80
2022-11-11T20:52:17.320Z,24.80
2022-11-11T20:55:05.480Z,24.50
2022-11-11T20:57:52.752Z,24.70
2022-11-11T21:00:39.779Z,24.60
2022-11-11T21:03:27.124Z,25.10
2022-11-11T21:06:17.939Z,23.70
2022-11-11T21:09:10.638Z,24.00
2022-11-11T21:11:57.952Z,24.60
2022-11-11T21:14:47.558Z,25.80
2022-11-11T21:17:35.019Z,25.90
2022-11-11T21:20:22.371Z,23.90
2022-11-11T21:23:09.767Z,24.30
2022-11-11T21:26:06.578Z,24.30
2022-11-11T21:28:54.713Z,23.20
2022-11-11T21:31:43.910Z,23.80
2022-11-11T21:34:30.689Z,23.50
2022-11-11T21:37:18.134Z,23.40
2022-11-11T21:40:07.077Z,21.80
2022-11-11T21:42:58.103Z,24.20
2022-11-11T21:45:45.850Z,23.40
2022-11-11T21:48:34.149Z,23.40
2022-11-11T21:51:26.254Z,22.60
2022-11-11T21:54:14.385Z,22.70
2022-11-11T21:57:02.330Z,23.10
2022-11-11T21:59:50.562Z,24.50
2022-11-11T22:02:38.007Z,24.60
2022-11-11T22:05:25.143Z,24.90
2022-11-11T22:09:29.456Z,26.10
2022-11-11T22:16:55.096Z,24.20
2022-11-11T22:23:58.950Z,24.10
2022-11-11T22:26:46.086Z,26.70
2022-11-11T22:29:33.425Z,26.70
2022-11-11T22:32:23.155Z,25.30
2022-11-11T22:35:10.540Z,25.90
2022-11-11T22:37:57.923Z,25.60
2022-11-11T22:40:45.402Z,24.40
2022-11-11T22:43:58.581Z,23.30
2022-11-11T22:46:47.388Z,24.10
2022-11-11T22:49:34.317Z,24.90
2022-11-11T22:52:21.498Z,23.40
2022-11-11T22:55:08.473Z,24.20
2022-11-11T22:57:56.002Z,21.30
2022-11-11T23:00:42.911Z,23.30
2022-11-11T23:03:35.835Z,25.30
2022-11-11T23:06:27.355Z,26.10
2022-11-11T23:09:14.903Z,22.90
2022-11-11T23:12:02.001Z,23.40
2022-11-11T23:14:49.288Z,24.40
2022-11-11T23:17:37.042Z,24.10
2022-11-11T23:20:24.219Z,25.10
2022-11-11T23:23:11.437Z,25.00
2022-11-11T23:26:06.329Z,25.10
2022-11-11T23:28:53.819Z,23.30
2022-11-11T23:31:41.100Z,23.30
2022-11-11T23:34:28.422Z,25.40
2022-11-11T23:37:15.529Z,24.60
2022-11-11T23:40:03.160Z,24.80
2022-11-11T23:42:50.383Z,25.30
2022-11-11T23:45:40.288Z,26.30
2022-11-11T23:48:28.792Z,26.00
2022-11-11T23:51:18.190Z,25.20
2022-11-11T23:54:05.519Z,27.80
2022-11-11T23:56:52.842Z,29.50
2022-11-11T23:59:40.405Z,28.90
